sensor_id;sensor_type;location;lat;lon;timestamp;pressure;altitude;pressure_sealevel;temperature;humidity
22605;BME280;11469;49.024;8.246;2023-03-14T00:00:57;98690.22;;;11.46;100.00
22605;BME280;11469;49.024;8.246;2023-03-14T00:03:23;98692.63;;;11.48;100.00
22605;BME280;11469;49.024;8.246;2023-03-14T00:05:48;98693.03;;;11.50;100.00
22605;BME280;11469;49.024;8.246;2023-03-14T00:08:14;98687.81;;;11.48;100.00
22605;BME280;11469;49.024;8.246;2023-03-14T00:10:39;98685.00;;;11.48;100.00
22605;BME280;11469;49.024;8.246;2023-03-14T00:13:05;98655.78;;;11.46;100.00
22605;BME280;11469;49.024;8.246;2023-03-14T00:15:32;98663.38;;;11.49;100.00
22605;BME280;11469;49.024;8.246;2023-03-14T00:17:58;98666.56;;;11.51;100.00
22605;BME280;11469;49.024;8.246;2023-03-14T00:20:23;98662.16;;;11.53;100.00
22605;BME280;11469;49.024;8.246;2023-03-14T00:22:49;98662.16;;;11.53;100.00
22605;BME280;11469;49.024;8.246;2023-03-14T00:25:14;98656.16;;;11.51;100.00
22605;BME280;11469;49.024;8.246;2023-03-14T00:27:40;98654.53;;;11.50;100.00
22605;BME280;11469;49.024;8.246;2023-03-14T00:30:05;98650.97;;;11.46;100.00
22605;BME280;11469;49.024;8.246;2023-03-14T00:32:33;98653.78;;;11.43;100.00
22605;BME280;11469;49.024;8.246;2023-03-14T00:34:58;98654.19;;;11.41;100.00
22605;BME280;11469;49.024;8.246;2023-03-14T00:37:26;98660.56;;;11.49;100.00
22605;BME280;11469;49.024;8.246;2023-03-14T00:39:51;98664.56;;;11.51;100.00
22605;BME280;11469;49.024;8.246;2023-03-14T00:42:17;98658.94;;;11.51;100.00
22605;BME280;11469;49.024;8.246;2023-03-14T00:44:42;98660.91;;;11.58;100.00
22605;BME280;11469;49.024;8.246;2023-03-14T00:47:07;98672.97;;;11.55;100.00
22605;BME280;11469;49.024;8.246;2023-03-14T00:49:33;98671.34;;;11.57;100.00
22605;BME280;11469;49.024;8.246;2023-03-14T00:51:58;98674.63;;;11.45;100.00
22605;BME280;11469;49.024;8.246;2023-03-14T00:54:23;98685.78;;;11.52;100.00
22605;BME280;11469;49.024;8.246;2023-03-14T00:56:49;98679.38;;;11.55;100.00
22605;BME280;11469;49.024;8.246;2023-03-14T00:59:15;98684.19;;;11.51;100.00
22605;BME280;11469;49.024;8.246;2023-03-14T01:01:41;98681.34;;;11.58;100.00
22605;BME280;11469;49.024;8.246;2023-03-14T01:04:07;98679.38;;;11.55;100.00
22605;BME280;11469;49.024;8.246;2023-03-14T01:06:32;98671.78;;;11.52;100.00
22605;BME280;11469;49.024;8.246;2023-03-14T01:08:58;98676.59;;;11.52;100.00
22605;BME280;11469;49.024;8.246;2023-03-14T01:11:34;98682.22;;;11.45;100.00
22605;BME280;11469;49.024;8.246;2023-03-14T01:14:00;98670.16;;;11.51;100.00
22605;BME280;11469;49.024;8.246;2023-03-14T01:16:28;98676.22;;;11.46;100.00
22605;BME280;11469;49.024;8.246;2023-03-14T01:18:53;98673.03;;;11.41;100.00
22605;BME280;11469;49.024;8.246;2023-03-14T01:23:46;98670.25;;;11.37;100.00
22605;BME280;11469;49.024;8.246;2023-03-14T01:26:14;98659.47;;;11.32;100.00
22605;BME280;11469;49.024;8.246;2023-03-14T01:28:40;98665.13;;;11.25;100.00
22605;BME280;11469;49.024;8.246;2023-03-14T01:31:08;98674.34;;;11.22;100.00
22605;BME280;11469;49.024;8.246;2023-03-14T01:33:35;98664.75;;;11.16;100.00
22605;BME280;11469;49.024;8.246;2023-03-14T01:36:00;98669.56;;;11.15;100.00
22605;BME280;11469;49.024;8.246;2023-03-14T01:38:28;98651.56;;;11.13;100.00
22605;BME280;11469;49.024;8.246;2023-03-14T01:40:54;98645.56;;;11.07;100.00
22605;BME280;11469;49.024;8.246;2023-03-14T01:43:20;98631.56;;;11.04;100.00
22605;BME280;11469;49.024;8.246;2023-03-14T01:46:34;98624.38;;;11.03;100.00
22605;BME280;11469;49.024;8.246;2023-03-14T01:51:38;98622.00;;;10.94;100.00
22605;BME280;11469;49.024;8.246;2023-03-14T01:54:36;98609.59;;;10.88;100.00
22605;BME280;11469;49.024;8.246;2023-03-14T01:57:14;98612.81;;;10.90;100.00
22605;BME280;11469;49.024;8.246;2023-03-14T01:59:46;98607.59;;;10.88;100.00
22605;BME280;11469;49.024;8.246;2023-03-14T02:02:13;98611.25;;;10.85;100.00
22605;BME280;11469;49.024;8.246;2023-03-14T02:04:41;98616.00;;;10.88;100.00
22605;BME280;11469;49.024;8.246;2023-03-14T02:07:15;98609.66;;;10.84;100.00
22605;BME280;11469;49.024;8.246;2023-03-14T02:09:43;98615.25;;;10.81;100.00
22605;BME280;11469;49.024;8.246;2023-03-14T02:12:09;98623.28;;;10.82;100.00
22605;BME280;11469;49.024;8.246;2023-03-14T02:14:37;98605.19;;;10.90;100.00
22605;BME280;11469;49.024;8.246;2023-03-14T02:17:04;98598.84;;;10.86;100.00
22605;BME280;11469;49.024;8.246;2023-03-14T02:22:20;98584.78;;;10.90;100.00
22605;BME280;11469;49.024;8.246;2023-03-14T02:27:54;98586.78;;;10.89;100.00
22605;BME280;11469;49.024;8.246;2023-03-14T02:30:22;98577.63;;;10.85;100.00
22605;BME280;11469;49.024;8.246;2023-03-14T02:32:51;98578.78;;;10.88;100.00
22605;BME280;11469;49.024;8.246;2023-03-14T02:35:34;98580.78;;;10.87;100.00
22605;BME280;11469;49.024;8.246;2023-03-14T02:40:29;98564.81;;;10.84;100.00
22605;BME280;11469;49.024;8.246;2023-03-14T02:42:54;98564.81;;;10.81;100.00
22605;BME280;11469;49.024;8.246;2023-03-14T02:47:56;98561.59;;;10.86;100.00
22605;BME280;11469;49.024;8.246;2023-03-14T02:50:25;98560.81;;;10.82;100.00
22605;BME280;11469;49.024;8.246;2023-03-14T02:52:51;98557.63;;;10.83;100.00
22605;BME280;11469;49.024;8.246;2023-03-14T02:55:23;98571.22;;;10.85;100.00
22605;BME280;11469;49.024;8.246;2023-03-14T02:57:50;98564.00;;;10.84;100.00
22605;BME280;11469;49.024;8.246;2023-03-14T03:00:16;98545.63;;;10.76;100.00
22605;BME280;11469;49.024;8.246;2023-03-14T03:02:41;98532.00;;;10.81;100.00
22605;BME280;11469;49.024;8.246;2023-03-14T03:05:07;98534.41;;;10.83;100.00
22605;BME280;11469;49.024;8.246;2023-03-14T03:07:32;98528.78;;;10.83;100.00
22605;BME280;11469;49.024;8.246;2023-03-14T03:09:58;98512.41;;;10.78;100.00
22605;BME280;11469;49.024;8.246;2023-03-14T03:12:23;98511.22;;;10.75;100.00
22605;BME280;11469;49.024;8.246;2023-03-14T03:14:48;98502.03;;;10.71;100.00
22605;BME280;11469;49.024;8.246;2023-03-14T03:17:14;98503.63;;;10.72;100.00
22605;BME280;11469;49.024;8.246;2023-03-14T03:19:40;98501.22;;;10.71;100.00
22605;BME280;11469;49.024;8.246;2023-03-14T03:22:05;98492.81;;;10.71;100.00
22605;BME280;11469;49.024;8.246;2023-03-14T03:24:31;98490.41;;;10.73;100.00
22605;BME280;11469;49.024;8.246;2023-03-14T03:26:56;98489.59;;;10.76;100.00
22605;BME280;11469;49.024;8.246;2023-03-14T03:29:21;98474.41;;;10.73;100.00
22605;BME280;11469;49.024;8.246;2023-03-14T03:31:47;98474.00;;;10.75;100.00
22605;BME280;11469;49.024;8.246;2023-03-14T03:34:13;98463.19;;;10.73;100.00
22605;BME280;11469;49.024;8.246;2023-03-14T03:36:39;98448.03;;;10.67;100.00
22605;BME280;11469;49.024;8.246;2023-03-14T03:39:05;98448.84;;;10.64;100.00
22605;BME280;11469;49.024;8.246;2023-03-14T03:41:30;98455.63;;;10.67;100.00
22605;BME280;11469;49.024;8.246;2023-03-14T03:43:56;98469.25;;;10.64;100.00
22605;BME280;11469;49.024;8.246;2023-03-14T03:46:22;98458.84;;;10.61;100.00
22605;BME280;11469;49.024;8.246;2023-03-14T03:48:48;98466.06;;;10.59;100.00
22605;BME280;11469;49.024;8.246;2023-03-14T03:51:15;98468.44;;;10.64;99.59
22605;BME280;11469;49.024;8.246;2023-03-14T03:53:42;98461.25;;;10.63;99.27
22605;BME280;11469;49.024;8.246;2023-03-14T03:56:08;98452.44;;;10.64;98.77
22605;BME280;11469;49.024;8.246;2023-03-14T03:58:34;98453.25;;;10.61;99.32
22605;BME280;11469;49.024;8.246;2023-03-14T04:00:59;98452.84;;;10.63;99.04
22605;BME280;11469;49.024;8.246;2023-03-14T04:03:24;98441.25;;;10.64;97.75
22605;BME280;11469;49.024;8.246;2023-03-14T04:06:02;98446.84;;;10.64;97.63
22605;BME280;11469;49.024;8.246;2023-03-14T04:08:28;98440.84;;;10.62;97.49
22605;BME280;11469;49.024;8.246;2023-03-14T04:10:58;98440.47;;;10.57;97.35
22605;BME280;11469;49.024;8.246;2023-03-14T04:13:25;98432.94;;;10.47;97.15
22605;BME280;11469;49.024;8.246;2023-03-14T04:15:50;98433.34;;;10.42;97.48
22605;BME280;11469;49.024;8.246;2023-03-14T04:18:16;98424.94;;;10.45;96.36
22605;BME280;11469;49.024;8.246;2023-03-14T04:20:42;98419.75;;;10.44;95.91
22605;BME280;11469;49.024;8.246;2023-03-14T04:23:07;98418.53;;;10.45;95.76
22605;BME280;11469;49.024;8.246;2023-03-14T04:25:32;98414.94;;;10.41;95.25
22605;BME280;11469;49.024;8.246;2023-03-14T04:27:58;98413.00;;;10.38;95.69
22605;BME280;11469;49.024;8.246;2023-03-14T04:30:23;98403.41;;;10.35;95.62
22605;BME280;11469;49.024;8.246;2023-03-14T04:32:48;98409.81;;;10.36;94.93
22605;BME280;11469;49.024;8.246;2023-03-14T04:35:14;98406.22;;;10.32;95.88
22605;BME280;11469;49.024;8.246;2023-03-14T04:37:39;98397.44;;;10.29;95.48
22605;BME280;11469;49.024;8.246;2023-03-14T04:40:07;98397.03;;;10.27;96.13
22605;BME280;11469;49.024;8.246;2023-03-14T04:42:33;98405.03;;;10.29;95.41
22605;BME280;11469;49.024;8.246;2023-03-14T04:44:59;98403.47;;;10.24;95.71
22605;BME280;11469;49.024;8.246;2023-03-14T04:47:25;98393.03;;;10.28;95.37
22605;BME280;11469;49.024;8.246;2023-03-14T04:49:51;98393.84;;;10.29;95.12
22605;BME280;11469;49.024;8.246;2023-03-14T04:52:16;98388.25;;;10.29;94.88
22605;BME280;11469;49.024;8.246;2023-03-14T04:54:41;98394.63;;;10.33;94.93
22605;BME280;11469;49.024;8.246;2023-03-14T04:57:07;98386.63;;;10.35;94.06
22605;BME280;11469;49.024;8.246;2023-03-14T04:59:32;98388.53;;;10.42;94.60
22605;BME280;11469;49.024;8.246;2023-03-14T05:01:57;98385.75;;;10.42;94.56
22605;BME280;11469;49.024;8.246;2023-03-14T05:04:23;98386.53;;;10.42;93.69
22605;BME280;11469;49.024;8.246;2023-03-14T05:06:48;98384.91;;;10.48;93.50
22605;BME280;11469;49.024;8.246;2023-03-14T05:09:14;98384.50;;;10.50;93.52
22605;BME280;11469;49.024;8.246;2023-03-14T05:11:40;98395.66;;;10.57;92.29
22605;BME280;11469;49.024;8.246;2023-03-14T05:14:05;98386.47;;;10.56;92.80
22605;BME280;11469;49.024;8.246;2023-03-14T05:16:31;98391.25;;;10.59;93.00
22605;BME280;11469;49.024;8.246;2023-03-14T05:18:56;98388.44;;;10.63;91.87
22605;BME280;11469;49.024;8.246;2023-03-14T05:21:21;98387.19;;;10.68;91.51
22605;BME280;11469;49.024;8.246;2023-03-14T05:23:47;98384.81;;;10.62;92.18
22605;BME280;11469;49.024;8.246;2023-03-14T05:26:12;98386.81;;;10.66;91.62
22605;BME280;11469;49.024;8.246;2023-03-14T05:28:38;98381.59;;;10.68;91.49
22605;BME280;11469;49.024;8.246;2023-03-14T05:31:06;98371.22;;;10.64;91.46
22605;BME280;11469;49.024;8.246;2023-03-14T05:33:31;98365.63;;;10.61;91.60
22605;BME280;11469;49.024;8.246;2023-03-14T05:35:57;98358.41;;;10.63;91.24
22605;BME280;11469;49.024;8.246;2023-03-14T05:38:22;98352.84;;;10.60;90.49
22605;BME280;11469;49.024;8.246;2023-03-14T05:40:47;98348.06;;;10.57;91.31
22605;BME280;11469;49.024;8.246;2023-03-14T05:43:13;98341.69;;;10.49;91.82
22605;BME280;11469;49.024;8.246;2023-03-14T05:45:40;98332.13;;;10.43;91.46
22605;BME280;11469;49.024;8.246;2023-03-14T05:48:05;98331.72;;;10.45;91.33
22605;BME280;11469;49.024;8.246;2023-03-14T05:50:31;98328.50;;;10.46;91.26
22605;BME280;11469;49.024;8.246;2023-03-14T05:52:56;98326.19;;;10.38;92.05
22605;BME280;11469;49.024;8.246;2023-03-14T05:55:22;98324.22;;;10.35;91.94
22605;BME280;11469;49.024;8.246;2023-03-14T05:57:47;98326.19;;;10.38;91.37
22605;BME280;11469;49.024;8.246;2023-03-14T06:00:13;98333.81;;;10.37;90.78
22605;BME280;11469;49.024;8.246;2023-03-14T06:02:38;98331.03;;;10.34;91.21
22605;BME280;11469;49.024;8.246;2023-03-14T06:05:04;98336.25;;;10.28;91.69
22605;BME280;11469;49.024;8.246;2023-03-14T06:07:30;98330.25;;;10.29;91.89
22605;BME280;11469;49.024;8.246;2023-03-14T06:09:55;98336.28;;;10.24;91.93
22605;BME280;11469;49.024;8.246;2023-03-14T06:12:20;98339.06;;;10.24;91.57
22605;BME280;11469;49.024;8.246;2023-03-14T06:14:46;98325.50;;;10.19;92.87
22605;BME280;11469;49.024;8.246;2023-03-14T06:17:11;98320.69;;;10.16;92.13
22605;BME280;11469;49.024;8.246;2023-03-14T06:19:36;98325.09;;;10.17;93.03
22605;BME280;11469;49.024;8.246;2023-03-14T06:22:02;98324.31;;;10.13;92.69
22605;BME280;11469;49.024;8.246;2023-03-14T06:24:29;98325.09;;;10.14;93.10
22605;BME280;11469;49.024;8.246;2023-03-14T06:26:54;98323.50;;;10.13;93.17
22605;BME280;11469;49.024;8.246;2023-03-14T06:29:20;98329.09;;;10.20;92.87
22605;BME280;11469;49.024;8.246;2023-03-14T06:31:45;98322.66;;;10.30;91.85
22605;BME280;11469;49.024;8.246;2023-03-14T06:34:10;98333.81;;;10.37;92.03
22605;BME280;11469;49.024;8.246;2023-03-14T06:36:36;98335.31;;;10.45;91.58
22605;BME280;11469;49.024;8.246;2023-03-14T06:39:01;98329.69;;;10.52;90.92
22605;BME280;11469;49.024;8.246;2023-03-14T06:41:27;98314.41;;;10.60;90.33
22605;BME280;11469;49.024;8.246;2023-03-14T06:43:52;98319.94;;;10.71;89.65
22605;BME280;11469;49.024;8.246;2023-03-14T06:46:18;98319.94;;;10.71;88.95
22605;BME280;11469;49.024;8.246;2023-03-14T06:48:43;98316.31;;;10.74;88.53
22605;BME280;11469;49.024;8.246;2023-03-14T06:51:09;98314.28;;;10.78;88.37
22605;BME280;11469;49.024;8.246;2023-03-14T06:53:34;98318.66;;;10.79;88.24
22605;BME280;11469;49.024;8.246;2023-03-14T06:56:00;98321.81;;;10.85;87.99
22605;BME280;11469;49.024;8.246;2023-03-14T06:58:25;98321.47;;;10.79;88.49
22605;BME280;11469;49.024;8.246;2023-03-14T07:00:52;98316.25;;;10.81;87.58
22605;BME280;11469;49.024;8.246;2023-03-14T07:03:18;98318.16;;;10.88;87.21
22605;BME280;11469;49.024;8.246;2023-03-14T07:05:43;98319.72;;;10.92;86.82
22605;BME280;11469;49.024;8.246;2023-03-14T07:08:09;98330.13;;;10.95;87.05
22605;BME280;11469;49.024;8.246;2023-03-14T07:10:34;98336.06;;;11.01;86.59
22605;BME280;11469;49.024;8.246;2023-03-14T07:13:00;98342.81;;;11.07;86.02
22605;BME280;11469;49.024;8.246;2023-03-14T07:15:25;98357.66;;;11.04;86.36
22605;BME280;11469;49.024;8.246;2023-03-14T07:17:50;98365.63;;;11.09;86.00
22605;BME280;11469;49.024;8.246;2023-03-14T07:20:16;98358.78;;;11.14;85.55
22605;BME280;11469;49.024;8.246;2023-03-14T07:22:42;98371.25;;;11.09;86.25
22605;BME280;11469;49.024;8.246;2023-03-14T07:25:07;98372.84;;;11.10;86.00
22605;BME280;11469;49.024;8.246;2023-03-14T07:27:35;98378.38;;;11.17;85.89
22605;BME280;11469;49.024;8.246;2023-03-14T07:30:00;98373.91;;;11.23;85.33
22605;BME280;11469;49.024;8.246;2023-03-14T07:32:25;98380.69;;;11.29;85.46
22605;BME280;11469;49.024;8.246;2023-03-14T07:34:51;98376.25;;;11.32;85.54
22605;BME280;11469;49.024;8.246;2023-03-14T07:37:16;98371.75;;;11.38;83.27
22605;BME280;11469;49.024;8.246;2023-03-14T07:39:41;98375.66;;;11.48;83.86
22605;BME280;11469;49.024;8.246;2023-03-14T07:42:07;98373.25;;;11.50;83.53
22605;BME280;11469;49.024;8.246;2023-03-14T07:44:33;98375.19;;;11.56;82.45
22605;BME280;11469;49.024;8.246;2023-03-14T07:46:58;98372.69;;;11.66;82.71
22605;BME280;11469;49.024;8.246;2023-03-14T07:49:23;98373.84;;;11.68;82.62
22605;BME280;11469;49.024;8.246;2023-03-14T07:51:49;98369.84;;;11.69;84.08
22605;BME280;11469;49.024;8.246;2023-03-14T07:54:15;98382.34;;;11.61;84.92
22605;BME280;11469;49.024;8.246;2023-03-14T07:56:41;98379.97;;;11.59;85.47
22605;BME280;11469;49.024;8.246;2023-03-14T07:59:06;98380.00;;;11.56;86.63
22605;BME280;11469;49.024;8.246;2023-03-14T08:01:32;98392.84;;;11.53;86.97
22605;BME280;11469;49.024;8.246;2023-03-14T08:03:58;98393.69;;;11.50;87.06
22605;BME280;11469;49.024;8.246;2023-03-14T08:06:23;98405.28;;;11.52;87.55
22605;BME280;11469;49.024;8.246;2023-03-14T08:08:48;98416.47;;;11.56;86.90
22605;BME280;11469;49.024;8.246;2023-03-14T08:11:14;98407.28;;;11.52;87.84
22605;BME280;11469;49.024;8.246;2023-03-14T08:13:39;98409.81;;;11.39;89.88
22605;BME280;11469;49.024;8.246;2023-03-14T08:16:05;98404.69;;;11.34;88.60
22605;BME280;11469;49.024;8.246;2023-03-14T08:18:31;98417.47;;;11.35;89.95
22605;BME280;11469;49.024;8.246;2023-03-14T08:20:56;98409.97;;;11.25;89.69
22605;BME280;11469;49.024;8.246;2023-03-14T08:23:22;98411.97;;;11.24;90.83
22605;BME280;11469;49.024;8.246;2023-03-14T08:25:51;98405.16;;;11.25;91.24
22605;BME280;11469;49.024;8.246;2023-03-14T08:28:17;98409.53;;;11.30;90.64
22605;BME280;11469;49.024;8.246;2023-03-14T08:30:43;98411.91;;;11.32;89.28
22605;BME280;11469;49.024;8.246;2023-03-14T08:33:08;98408.72;;;11.29;88.91
22605;BME280;11469;49.024;8.246;2023-03-14T08:35:34;98419.09;;;11.33;88.79
22605;BME280;11469;49.024;8.246;2023-03-14T08:37:59;98402.28;;;11.33;88.18
22605;BME280;11469;49.024;8.246;2023-03-14T08:40:24;98410.28;;;11.34;88.61
22605;BME280;11469;49.024;8.246;2023-03-14T08:42:50;98415.53;;;11.28;89.83
22605;BME280;11469;49.024;8.246;2023-03-14T08:45:16;98407.84;;;11.36;89.55
22605;BME280;11469;49.024;8.246;2023-03-14T08:47:43;98408.22;;;11.38;90.18
22605;BME280;11469;49.024;8.246;2023-03-14T08:50:09;98410.16;;;11.45;89.90
22605;BME280;11469;49.024;8.246;2023-03-14T08:52:35;98406.91;;;11.50;89.10
22605;BME280;11469;49.024;8.246;2023-03-14T08:55:03;98418.91;;;11.50;88.55
22605;BME280;11469;49.024;8.246;2023-03-14T08:57:28;98414.53;;;11.49;88.02
22605;BME280;11469;49.024;8.246;2023-03-14T08:59:55;98411.69;;;11.53;87.59
22605;BME280;11469;49.024;8.246;2023-03-14T09:02:21;98421.28;;;11.55;87.47
22605;BME280;11469;49.024;8.246;2023-03-14T09:04:46;98422.47;;;11.58;86.65
22605;BME280;11469;49.024;8.246;2023-03-14T09:07:12;98413.94;;;11.69;86.27
22605;BME280;11469;49.024;8.246;2023-03-14T09:09:37;98407.06;;;11.77;85.05
22605;BME280;11469;49.024;8.246;2023-03-14T09:12:02;98407.81;;;11.81;84.97
22605;BME280;11469;49.024;8.246;2023-03-14T09:14:28;98414.16;;;11.85;83.79
22605;BME280;11469;49.024;8.246;2023-03-14T09:16:54;98413.34;;;11.88;83.10
22605;BME280;11469;49.024;8.246;2023-03-14T09:19:20;98417.72;;;11.89;82.94
22605;BME280;11469;49.024;8.246;2023-03-14T09:21:45;98409.22;;;11.96;83.22
22605;BME280;11469;49.024;8.246;2023-03-14T09:24:10;98419.22;;;12.01;82.13
22605;BME280;11469;49.024;8.246;2023-03-14T09:26:36;98420.00;;;12.01;83.90
22605;BME280;11469;49.024;8.246;2023-03-14T09:29:01;98420.75;;;12.05;83.49
22605;BME280;11469;49.024;8.246;2023-03-14T09:31:26;98424.69;;;12.11;83.75
22605;BME280;11469;49.024;8.246;2023-03-14T09:33:53;98435.69;;;11.99;84.45
22605;BME280;11469;49.024;8.246;2023-03-14T09:36:19;98435.34;;;11.93;86.14
22605;BME280;11469;49.024;8.246;2023-03-14T09:38:44;98445.16;;;11.74;89.35
22605;BME280;11469;49.024;8.246;2023-03-14T09:41:29;98447.69;;;11.58;91.93
22605;BME280;11469;49.024;8.246;2023-03-14T09:44:27;98445.69;;;11.58;92.98
22605;BME280;11469;49.024;8.246;2023-03-14T09:46:57;98454.06;;;11.66;93.66
22605;BME280;11469;49.024;8.246;2023-03-14T09:49:28;98446.00;;;11.68;95.84
22605;BME280;11469;49.024;8.246;2023-03-14T09:51:56;98451.97;;;11.77;94.34
22605;BME280;11469;49.024;8.246;2023-03-14T09:57:04;98455.16;;;11.79;94.37
22605;BME280;11469;49.024;8.246;2023-03-14T09:59:31;98470.78;;;11.76;93.19
22605;BME280;11469;49.024;8.246;2023-03-14T10:02:01;98464.78;;;11.74;94.21
22605;BME280;11469;49.024;8.246;2023-03-14T10:04:28;98468.06;;;11.66;94.96
22605;BME280;11469;49.024;8.246;2023-03-14T10:06:55;98472.47;;;11.67;96.67
22605;BME280;11469;49.024;8.246;2023-03-14T10:09:22;98464.50;;;11.61;97.01
22605;BME280;11469;49.024;8.246;2023-03-14T10:11:53;98463.00;;;11.50;98.42
22605;BME280;11469;49.024;8.246;2023-03-14T10:14:33;98463.13;;;11.36;100.00
22605;BME280;11469;49.024;8.246;2023-03-14T10:17:12;98468.72;;;11.36;100.00
22605;BME280;11469;49.024;8.246;2023-03-14T10:19:51;98473.22;;;11.29;100.00
22605;BME280;11469;49.024;8.246;2023-03-14T10:22:17;98477.19;;;11.32;100.00
22605;BME280;11469;49.024;8.246;2023-03-14T10:24:51;98473.25;;;11.26;100.00
22605;BME280;11469;49.024;8.246;2023-03-14T10:27:22;98490.88;;;11.23;100.00
22605;BME280;11469;49.024;8.246;2023-03-14T10:29:53;98487.66;;;11.24;100.00
22605;BME280;11469;49.024;8.246;2023-03-14T10:32:21;98492.16;;;11.11;100.00
22605;BME280;11469;49.024;8.246;2023-03-14T10:37:34;98501.09;;;10.92;100.00
22605;BME280;11469;49.024;8.246;2023-03-14T10:40:02;98508.78;;;10.84;100.00
22605;BME280;11469;49.024;8.246;2023-03-14T10:42:39;98512.38;;;10.85;100.00
22605;BME280;11469;49.024;8.246;2023-03-14T10:45:38;98510.03;;;10.73;100.00
22605;BME280;11469;49.024;8.246;2023-03-14T10:53:24;98524.88;;;10.62;100.00
22605;BME280;11469;49.024;8.246;2023-03-14T10:55:50;98530.47;;;10.66;100.00
22605;BME280;11469;49.024;8.246;2023-03-14T10:58:21;98528.06;;;10.68;100.00
22605;BME280;11469;49.024;8.246;2023-03-14T11:00:51;98542.47;;;10.63;100.00
22605;BME280;11469;49.024;8.246;2023-03-14T11:03:18;98538.88;;;10.62;100.00
22605;BME280;11469;49.024;8.246;2023-03-14T11:05:59;98552.91;;;10.59;100.00
22605;BME280;11469;49.024;8.246;2023-03-14T11:08:40;98555.28;;;10.64;100.00
22605;BME280;11469;49.024;8.246;2023-03-14T11:11:18;98558.91;;;10.61;100.00
22605;BME280;11469;49.024;8.246;2023-03-14T11:13:55;98565.31;;;10.61;100.00
22605;BME280;11469;49.024;8.246;2023-03-14T11:16:51;98572.09;;;10.60;100.00
22605;BME280;11469;49.024;8.246;2023-03-14T11:22:26;98576.91;;;10.60;100.00
22605;BME280;11469;49.024;8.246;2023-03-14T11:30:50;98630.59;;;10.37;100.00
22605;BME280;11469;49.024;8.246;2023-03-14T11:33:21;98639.78;;;10.13;100.00
22605;BME280;11469;49.024;8.246;2023-03-14T11:36:03;98668.19;;;9.86;100.00
22605;BME280;11469;49.024;8.246;2023-03-14T11:38:38;98677.78;;;9.75;100.00
22605;BME280;11469;49.024;8.246;2023-03-14T11:41:12;98707.31;;;9.69;100.00
22605;BME280;11469;49.024;8.246;2023-03-14T11:43:39;98718.09;;;9.63;100.00
22605;BME280;11469;49.024;8.246;2023-03-14T11:46:17;98725.66;;;9.45;97.27
22605;BME280;11469;49.024;8.246;2023-03-14T11:51:21;98763.16;;;9.33;95.35
22605;BME280;11469;49.024;8.246;2023-03-14T11:54:34;98765.50;;;9.24;91.16
22605;BME280;11469;49.024;8.246;2023-03-14T11:57:11;98779.94;;;9.37;93.60
22605;BME280;11469;49.024;8.246;2023-03-14T12:10:49;98826.41;;;9.70;85.57
22605;BME280;11469;49.024;8.246;2023-03-14T12:13:17;98824.84;;;9.79;87.28
22605;BME280;11469;49.024;8.246;2023-03-14T12:15:49;98822.06;;;9.83;85.26
22605;BME280;11469;49.024;8.246;2023-03-14T12:18:31;98835.66;;;9.81;83.08
22605;BME280;11469;49.024;8.246;2023-03-14T12:21:02;98833.66;;;9.81;83.70
22605;BME280;11469;49.024;8.246;2023-03-14T12:23:36;98839.69;;;9.90;84.26
22605;BME280;11469;49.024;8.246;2023-03-14T12:26:17;98827.66;;;9.93;82.30
22605;BME280;11469;49.024;8.246;2023-03-14T12:28:50;98847.69;;;10.03;79.04
22605;BME280;11469;49.024;8.246;2023-03-14T12:34:27;98857.78;;;10.25;73.84
22605;BME280;11469;49.024;8.246;2023-03-14T12:37:01;98868.59;;;10.23;67.74
22605;BME280;11469;49.024;8.246;2023-03-14T12:39:50;98878.19;;;10.29;67.40
22605;BME280;11469;49.024;8.246;2023-03-14T12:45:23;98891.00;;;10.30;62.64
22605;BME280;11469;49.024;8.246;2023-03-14T12:50:25;98911.41;;;10.30;60.31
22605;BME280;11469;49.024;8.246;2023-03-14T13:00:41;98949.81;;;10.30;55.84
22605;BME280;11469;49.024;8.246;2023-03-14T13:03:19;98965.44;;;10.38;57.07
22605;BME280;11469;49.024;8.246;2023-03-14T13:10:57;98981.03;;;10.39;55.16
22605;BME280;11469;49.024;8.246;2023-03-14T13:13:25;98979.84;;;10.47;56.25
22605;BME280;11469;49.024;8.246;2023-03-14T13:15:59;98991.03;;;10.33;55.08
22605;BME280;11469;49.024;8.246;2023-03-14T13:18:49;98989.41;;;10.32;55.18
22605;BME280;11469;49.024;8.246;2023-03-14T13:21:19;98993.06;;;10.40;55.68
22605;BME280;11469;49.024;8.246;2023-03-14T13:23:59;98999.44;;;10.44;56.67
22605;BME280;11469;49.024;8.246;2023-03-14T13:26:39;99009.03;;;10.32;53.58
22605;BME280;11469;49.024;8.246;2023-03-14T13:29:18;99012.59;;;10.29;52.44
22605;BME280;11469;49.024;8.246;2023-03-14T13:31:52;99010.19;;;10.24;53.74
22605;BME280;11469;49.024;8.246;2023-03-14T13:34:18;99024.59;;;10.29;52.78
22605;BME280;11469;49.024;8.246;2023-03-14T13:36:44;99042.59;;;10.25;51.23
22605;BME280;11469;49.024;8.246;2023-03-14T13:39:13;99041.66;;;10.10;52.10
22605;BME280;11469;49.024;8.246;2023-03-14T13:41:39;99061.66;;;10.09;51.90
22605;BME280;11469;49.024;8.246;2023-03-14T13:44:07;99065.56;;;9.97;50.62
22605;BME280;11469;49.024;8.246;2023-03-14T13:46:35;99091.16;;;9.92;49.21
22605;BME280;11469;49.024;8.246;2023-03-14T13:49:06;99095.59;;;10.04;50.00
22605;BME280;11469;49.024;8.246;2023-03-14T13:51:34;99085.59;;;10.03;49.75
22605;BME280;11469;49.024;8.246;2023-03-14T13:54:03;99088.16;;;10.22;49.51
22605;BME280;11469;49.024;8.246;2023-03-14T13:56:31;99101.06;;;10.37;48.99
22605;BME280;11469;49.024;8.246;2023-03-14T13:58:57;99098.75;;;10.60;50.54
22605;BME280;11469;49.024;8.246;2023-03-14T14:01:41;99116.50;;;10.86;47.52
22605;BME280;11469;49.024;8.246;2023-03-14T14:04:13;99122.47;;;10.81;48.85
22605;BME280;11469;49.024;8.246;2023-03-14T14:06:45;99134.41;;;10.67;47.54
22605;BME280;11469;49.024;8.246;2023-03-14T14:09:16;99128.38;;;10.61;47.69
22605;BME280;11469;49.024;8.246;2023-03-14T14:14:30;99136.81;;;10.69;47.85
22605;BME280;11469;49.024;8.246;2023-03-14T14:16:58;99154.81;;;10.64;48.08